createdAt,value
2023-04-21T00:00:15.898Z,100254.31
2023-04-21T00:02:42.601Z,100262.81
2023-04-21T00:05:10.700Z,100254.03
2023-04-21T00:07:38.408Z,100252.25
2023-04-21T00:10:08.539Z,100253.03
2023-04-21T00:12:35.336Z,100247.88
2023-04-21T00:15:02.199Z,100250.56
2023-04-21T00:17:31.369Z,100242.75
2023-04-21T00:19:58.693Z,100238.34
2023-04-21T00:22:25.280Z,100245.22
2023-04-21T00:24:54.879Z,100238.25
2023-04-21T00:27:21.520Z,100241.59
2023-04-21T00:29:48.058Z,100238.25
2023-04-21T00:32:19.608Z,100237.41
2023-04-21T00:34:46.344Z,100240.94
2023-04-21T00:37:15.648Z,100234.88
2023-04-21T00:39:44.573Z,100237.41
2023-04-21T00:42:15.442Z,100240.88
2023-04-21T00:44:41.985Z,100239.13
2023-04-21T00:47:11.759Z,100236.34
2023-04-21T00:49:40.819Z,100240.72
2023-04-21T00:52:07.408Z,100240.69
2023-04-21T00:54:35.525Z,100239.84
2023-04-21T00:57:03.755Z,100243.34
2023-04-21T00:59:30.681Z,100232.03
2023-04-21T01:01:59.824Z,100239.94
2023-04-21T01:04:35.555Z,100235.66
2023-04-21T01:07:04.424Z,100233.03
2023-04-21T01:09:33.597Z,100240.78
2023-04-21T01:12:03.588Z,100239.00
2023-04-21T01:14:30.325Z,100238.16
2023-04-21T01:16:58.444Z,100237.28
2023-04-21T01:19:25.380Z,100239.88
2023-04-21T01:21:54.192Z,100236.47
2023-04-21T01:24:20.893Z,100229.38
2023-04-21T01:26:54.713Z,100232.91
2023-04-21T01:29:21.412Z,100225.13
2023-04-21T01:31:50.360Z,100225.09
2023-04-21T01:34:17.046Z,100227.50
2023-04-21T01:36:44.680Z,100224.03
2023-04-21T01:39:11.343Z,100224.09
2023-04-21T01:41:40.753Z,100222.38
2023-04-21T01:44:07.334Z,100224.03
2023-04-21T01:46:36.847Z,100218.91
2023-04-21T01:49:03.978Z,100217.09
2023-04-21T01:51:33.248Z,100220.66
2023-04-21T01:54:02.216Z,100224.91
2023-04-21T01:56:31.433Z,100221.41
2023-04-21T01:58:59.511Z,100213.44
2023-04-21T02:01:26.491Z,100218.66
2023-04-21T02:03:55.943Z,100221.22
2023-04-21T02:06:25.632Z,100221.25
2023-04-21T02:08:54.824Z,100217.66
2023-04-21T02:11:21.515Z,100227.13
2023-04-21T02:13:50.463Z,100220.19
2023-04-21T02:16:20.705Z,100223.75
2023-04-21T02:18:52.487Z,100229.84
2023-04-21T02:21:19.481Z,100223.75
2023-04-21T02:23:46.134Z,100225.38
2023-04-21T02:26:12.768Z,100223.69
2023-04-21T02:28:39.425Z,100217.34
2023-04-21T02:31:12.065Z,100221.53
2023-04-21T02:33:38.753Z,100225.72
2023-04-21T02:36:05.737Z,100229.09
2023-04-21T02:38:32.518Z,100232.53
2023-04-21T02:40:59.090Z,100225.78
2023-04-21T02:43:25.690Z,100220.47
2023-04-21T02:45:52.396Z,100224.63
2023-04-21T02:48:23.042Z,100229.72
2023-04-21T02:50:53.122Z,100226.16
2023-04-21T02:53:20.447Z,100232.03
2023-04-21T02:55:47.116Z,100232.09
2023-04-21T02:58:16.643Z,100232.09
2023-04-21T03:00:43.237Z,100234.88
2023-04-21T03:03:10.122Z,100231.34
2023-04-21T03:05:38.910Z,100233.06
2023-04-21T03:08:05.940Z,100238.34
2023-04-21T03:10:36.662Z,100234.88
2023-04-21T03:13:05.650Z,100244.34
2023-04-21T03:15:34.618Z,100238.28
2023-04-21T03:18:01.941Z,100240.16
2023-04-21T03:20:28.803Z,100244.19
2023-04-21T03:22:55.403Z,100251.22
2023-04-21T03:25:22.568Z,100251.09
2023-04-21T03:27:49.552Z,100256.84
2023-04-21T03:30:16.284Z,100252.44
2023-04-21T03:32:43.016Z,100250.47
2023-04-21T03:35:14.620Z,100259.00
2023-04-21T03:37:44.148Z,100256.03
2023-04-21T03:40:10.911Z,100262.13
2023-04-21T03:42:37.558Z,100250.81
2023-04-21T03:45:08.001Z,100263.88
2023-04-21T03:47:34.784Z,100258.63
2023-04-21T03:50:03.127Z,100272.19
2023-04-21T03:52:29.665Z,100267.06
2023-04-21T03:54:56.437Z,100268.63
2023-04-21T03:57:23.055Z,100269.44
2023-04-21T03:59:50.030Z,100269.44
2023-04-21T04:02:16.700Z,100273.94
2023-04-21T04:04:43.721Z,100267.94
2023-04-21T04:07:13.074Z,100273.19
2023-04-21T04:09:42.317Z,100280.16
2023-04-21T04:12:10.504Z,100274.13
2023-04-21T04:14:38.213Z,100281.81
2023-04-21T04:17:04.786Z,100287.03
2023-04-21T04:19:34.363Z,100284.47
2023-04-21T04:22:01.359Z,100295.78
2023-04-21T04:24:28.126Z,100293.25
2023-04-21T04:26:58.202Z,100291.38
2023-04-21T04:29:24.884Z,100288.78
2023-04-21T04:31:51.589Z,100294.81
2023-04-21T04:34:18.651Z,100300.97
2023-04-21T04:36:48.153Z,100294.91
2023-04-21T04:39:16.474Z,100297.50
2023-04-21T04:41:43.130Z,100302.97
2023-04-21T04:44:11.189Z,100296.22
2023-04-21T04:46:39.197Z,100304.19
2023-04-21T04:49:08.372Z,100299.00
2023-04-21T04:51:34.938Z,100297.59
2023-04-21T04:54:02.139Z,100303.06
2023-04-21T04:56:30.161Z,100301.34
2023-04-21T04:58:56.989Z,100297.88
2023-04-21T05:01:30.254Z,100295.44
2023-04-21T05:03:59.414Z,100293.84
2023-04-21T05:06:26.324Z,100293.22
2023-04-21T05:08:56.138Z,100294.13
2023-04-21T05:11:25.577Z,100292.44
2023-04-21T05:13:52.266Z,100289.09
2023-04-21T05:16:21.715Z,100295.28
2023-04-21T05:18:53.234Z,100293.56
2023-04-21T05:21:24.379Z,100289.13
2023-04-21T05:23:53.375Z,100290.81
2023-04-21T05:26:20.034Z,100285.69
2023-04-21T05:28:46.645Z,100284.16
2023-04-21T05:31:18.441Z,100285.16
2023-04-21T05:33:45.089Z,100284.38
2023-04-21T05:36:11.896Z,100290.56
2023-04-21T05:38:43.112Z,100287.97
2023-04-21T05:41:09.805Z,100295.88
2023-04-21T05:43:36.498Z,100299.56
2023-04-21T05:46:03.573Z,100297.19
2023-04-21T05:48:33.224Z,100299.19
2023-04-21T05:51:09.532Z,100302.84
2023-04-21T05:53:36.260Z,100291.00
2023-04-21T05:56:02.887Z,100298.09
2023-04-21T05:58:29.549Z,100298.03
2023-04-21T06:00:56.111Z,100301.63
2023-04-21T06:03:23.310Z,100299.19
2023-04-21T06:05:54.402Z,100302.03
2023-04-21T06:08:21.269Z,100305.78
2023-04-21T06:10:47.932Z,100311.28
2023-04-21T06:13:16.925Z,100308.66
2023-04-21T06:15:43.532Z,100301.00
2023-04-21T06:18:10.534Z,100303.75
2023-04-21T06:20:41.109Z,100303.91
2023-04-21T06:23:13.611Z,100311.00
2023-04-21T06:25:40.178Z,100308.50
2023-04-21T06:28:07.183Z,100299.97
2023-04-21T06:30:33.767Z,100300.00
2023-04-21T06:33:00.841Z,100301.09
2023-04-21T06:35:30.741Z,100298.53
2023-04-21T06:37:57.354Z,100297.75
2023-04-21T06:40:24.002Z,100294.41
2023-04-21T06:42:50.642Z,100298.78
2023-04-21T06:45:21.519Z,100296.22
2023-04-21T06:47:48.439Z,100300.66
2023-04-21T06:50:15.166Z,100299.13
2023-04-21T06:52:44.086Z,100299.28
2023-04-21T06:55:10.917Z,100295.88
2023-04-21T06:57:45.261Z,100300.31
2023-04-21T07:00:15.170Z,100293.31
2023-04-21T07:02:45.080Z,100291.66
2023-04-21T07:05:14.084Z,100281.31
2023-04-21T07:07:40.614Z,100294.47
2023-04-21T07:10:07.534Z,100291.97
2023-04-21T07:12:34.270Z,100284.13
2023-04-21T07:15:00.965Z,100291.25
2023-04-21T07:17:30.240Z,100290.44
2023-04-21T07:19:59.077Z,100289.66
2023-04-21T07:22:25.677Z,100295.06
2023-04-21T07:24:52.783Z,100291.69
2023-04-21T07:27:21.829Z,100288.19
2023-04-21T07:29:48.543Z,100290.94
2023-04-21T07:32:17.490Z,100284.91
2023-04-21T07:34:47.028Z,100281.50
2023-04-21T07:37:13.657Z,100281.53
2023-04-21T07:39:40.227Z,100282.41
2023-04-21T07:42:09.767Z,100277.22
2023-04-21T07:44:36.577Z,100275.50
2023-04-21T07:47:03.218Z,100287.69
2023-04-21T07:49:32.602Z,100278.09
2023-04-21T07:51:59.342Z,100283.41
2023-04-21T07:54:26.301Z,100283.47
2023-04-21T07:56:55.341Z,100277.44
2023-04-21T07:59:24.009Z,100282.66
2023-04-21T08:01:52.327Z,100279.19
2023-04-21T08:04:19.454Z,100274.03
2023-04-21T08:06:47.060Z,100272.31
2023-04-21T08:09:15.935Z,100268.94
2023-04-21T08:11:42.692Z,100273.38
2023-04-21T08:14:12.154Z,100267.31
2023-04-21T08:16:40.357Z,100268.19
2023-04-21T08:19:09.824Z,100278.72
2023-04-21T08:21:36.844Z,100277.00
2023-04-21T08:24:03.790Z,100269.13
2023-04-21T08:26:30.407Z,100270.00
2023-04-21T08:28:57.443Z,100281.38
2023-04-21T08:31:26.744Z,100267.38
2023-04-21T08:34:01.363Z,100266.53
2023-04-21T08:36:34.207Z,100266.56
2023-04-21T08:39:01.632Z,100264.78
2023-04-21T08:41:28.307Z,100260.41
2023-04-21T08:43:55.318Z,100262.16
2023-04-21T08:46:22.030Z,100263.91
2023-04-21T08:48:48.988Z,100259.50
2023-04-21T08:51:21.003Z,100259.47
2023-04-21T08:53:48.041Z,100249.81
2023-04-21T08:56:14.983Z,100254.19
2023-04-21T08:58:42.141Z,100245.38
2023-04-21T09:01:08.965Z,100256.78
2023-04-21T09:03:35.835Z,100247.97
2023-04-21T09:06:05.508Z,100245.22
2023-04-21T09:08:32.985Z,100240.78
2023-04-21T09:11:06.228Z,100247.66
2023-04-21T09:13:36.524Z,100245.84
2023-04-21T09:16:05.681Z,100238.78
2023-04-21T09:18:37.289Z,100244.88
2023-04-21T09:21:07.030Z,100239.63
2023-04-21T09:23:50.441Z,100243.06
2023-04-21T09:26:18.222Z,100230.66
2023-04-21T09:28:48.044Z,100230.56
2023-04-21T09:31:16.131Z,100228.72
2023-04-21T09:36:26.251Z,100224.09
2023-04-21T09:39:15.374Z,100223.13
2023-04-21T09:41:45.029Z,100218.66
2023-04-21T09:44:12.126Z,100217.66
2023-04-21T09:46:39.402Z,100219.31
2023-04-21T09:49:08.704Z,100213.19
2023-04-21T09:52:09.706Z,100210.50
2023-04-21T09:54:30.116Z,100209.59
2023-04-21T09:57:02.271Z,100206.19
2023-04-21T09:59:37.837Z,100201.91
2023-04-21T10:02:09.555Z,100205.25
2023-04-21T10:04:36.749Z,100200.66
2023-04-21T10:07:03.844Z,100198.72
2023-04-21T10:09:44.310Z,100189.47
2023-04-21T10:12:13.459Z,100190.53
2023-04-21T10:14:42.918Z,100183.31
2023-04-21T10:17:12.111Z,100182.16
2023-04-21T10:19:49.443Z,100181.69
2023-04-21T10:22:16.124Z,100182.25
2023-04-21T10:24:43.013Z,100189.38
2023-04-21T10:27:10.159Z,100193.75
2023-04-21T10:29:52.540Z,100182.31
2023-04-21T10:32:43.726Z,100183.25
2023-04-21T10:35:11.098Z,100181.91
2023-04-21T10:37:37.912Z,100180.91
2023-04-21T10:40:09.783Z,100177.53
2023-04-21T10:42:38.570Z,100175.00
2023-04-21T10:45:08.883Z,100168.00
2023-04-21T10:47:44.494Z,100166.94
2023-04-21T10:50:12.094Z,100166.63
2023-04-21T10:52:39.609Z,100160.22
2023-04-21T10:55:07.317Z,100164.13
2023-04-21T10:57:35.220Z,100152.50
2023-04-21T11:00:02.024Z,100155.13
2023-04-21T11:02:31.414Z,100149.06
2023-04-21T11:05:01.319Z,100150.47
2023-04-21T11:07:28.736Z,100142.25
2023-04-21T11:09:58.750Z,100142.25
2023-04-21T11:12:30.193Z,100138.38
2023-04-21T11:14:59.469Z,100147.09
2023-04-21T11:17:28.445Z,100150.97
2023-04-21T11:19:59.423Z,100142.47
2023-04-21T11:22:28.890Z,100139.00
2023-04-21T11:24:58.662Z,100150.13
2023-04-21T11:27:29.961Z,100142.59
2023-04-21T11:29:58.968Z,100147.34
2023-04-21T11:32:25.737Z,100148.22
2023-04-21T11:34:52.351Z,100148.25
2023-04-21T11:37:23.815Z,100147.69
2023-04-21T11:39:53.595Z,100140.06
2023-04-21T11:42:23.439Z,100147.38
2023-04-21T11:44:50.163Z,100135.91
2023-04-21T11:47:28.309Z,100141.28
2023-04-21T11:49:58.286Z,100142.13
2023-04-21T11:52:25.328Z,100130.59
2023-04-21T11:55:01.524Z,100135.75
2023-04-21T11:57:28.718Z,100128.00
2023-04-21T11:59:58.597Z,100120.41
2023-04-21T12:02:26.401Z,100122.22
2023-04-21T12:05:07.043Z,100119.19
2023-04-21T12:07:34.520Z,100121.00
2023-04-21T12:10:05.667Z,100114.81
2023-04-21T12:12:34.009Z,100110.47
2023-04-21T12:15:04.598Z,100111.44
2023-04-21T12:18:00.606Z,100113.88
2023-04-21T12:20:28.932Z,100106.34
2023-04-21T12:22:56.547Z,100107.09
2023-04-21T12:25:23.307Z,100103.03
2023-04-21T12:27:54.304Z,100111.25
2023-04-21T12:30:23.827Z,100106.22
2023-04-21T12:32:54.385Z,100105.91
2023-04-21T12:35:21.816Z,100105.00
2023-04-21T12:37:48.481Z,100110.75
2023-04-21T12:40:15.048Z,100102.34
2023-04-21T12:42:41.632Z,100108.97
2023-04-21T12:45:10.811Z,100105.91
2023-04-21T12:47:37.689Z,100104.28
2023-04-21T12:50:04.805Z,100104.22
2023-04-21T12:52:31.412Z,100103.47
2023-04-21T12:55:00.394Z,100108.50
2023-04-21T12:57:27.019Z,100096.81
2023-04-21T12:59:56.024Z,100104.59
2023-04-21T13:02:22.882Z,100102.47
2023-04-21T13:04:54.159Z,100102.13
2023-04-21T13:07:26.804Z,100098.38
2023-04-21T13:09:53.533Z,100094.97
2023-04-21T13:12:20.636Z,100093.38
2023-04-21T13:14:49.656Z,100099.94
2023-04-21T13:17:16.488Z,100095.63
2023-04-21T13:19:43.383Z,100094.97
2023-04-21T13:22:12.261Z,100090.13
2023-04-21T13:24:38.916Z,100092.09
2023-04-21T13:27:10.265Z,100088.53
2023-04-21T13:29:39.221Z,100086.16
2023-04-21T13:32:06.896Z,100093.22
2023-04-21T13:34:34.373Z,100091.38
2023-04-21T13:37:01.627Z,100085.91
2023-04-21T13:39:28.281Z,100082.19
2023-04-21T13:41:54.942Z,100082.00
2023-04-21T13:46:52.966Z,100083.19
2023-04-21T13:49:19.850Z,100083.84
2023-04-21T13:51:48.969Z,100078.63
2023-04-21T13:54:20.258Z,100075.75
2023-04-21T13:56:46.977Z,100073.69
2023-04-21T13:59:14.929Z,100073.28
2023-04-21T14:01:41.824Z,100067.84
2023-04-21T14:04:11.183Z,100073.88
2023-04-21T14:06:37.900Z,100066.25
2023-04-21T14:09:05.032Z,100060.84
2023-04-21T14:11:31.813Z,100056.63
2023-04-21T14:14:08.909Z,100055.75
2023-04-21T14:16:39.112Z,100058.41
2023-04-21T14:19:06.902Z,100047.56
2023-04-21T14:21:33.779Z,100042.88
2023-04-21T14:24:00.438Z,100039.84
2023-04-21T14:26:27.107Z,100035.22
2023-04-21T14:28:59.658Z,100036.09
2023-04-21T14:31:28.870Z,100032.03
2023-04-21T14:33:58.000Z,100037.78
2023-04-21T14:36:24.631Z,100030.47
2023-04-21T14:38:51.293Z,100036.22
2023-04-21T14:41:28.289Z,100032.59
2023-04-21T14:43:59.208Z,100030.69
2023-04-21T14:46:26.608Z,100028.56
2023-04-21T14:48:58.295Z,100032.78
2023-04-21T14:51:25.545Z,100033.47
2023-04-21T14:53:52.484Z,100026.75
2023-04-21T14:56:22.547Z,100024.81
2023-04-21T14:58:53.780Z,100034.34
2023-04-21T15:01:25.988Z,100029.97
2023-04-21T15:03:53.246Z,100025.09
2023-04-21T15:06:23.775Z,100023.59
2023-04-21T15:08:55.673Z,100016.56
2023-04-21T15:11:25.006Z,100019.03
2023-04-21T15:13:54.101Z,100006.97
2023-04-21T15:16:20.805Z,99999.94
2023-04-21T15:18:47.384Z,99996.94
2023-04-21T15:21:13.997Z,99998.31
2023-04-21T15:23:43.921Z,99995.88
2023-04-21T15:26:10.568Z,100006.22
2023-04-21T15:28:39.510Z,100006.69
2023-04-21T15:31:12.231Z,100002.03
2023-04-21T15:33:41.577Z,100003.56
2023-04-21T15:36:12.301Z,100007.25
2023-04-21T15:38:38.903Z,100002.56
2023-04-21T15:41:05.754Z,100001.38
2023-04-21T15:43:33.192Z,100000.88
2023-04-21T15:46:01.890Z,100002.00
2023-04-21T15:48:31.220Z,99993.94
2023-04-21T15:51:03.571Z,99995.25
2023-04-21T15:53:30.737Z,99992.25
2023-04-21T15:56:05.217Z,99994.19
2023-04-21T15:58:39.812Z,99990.03
2023-04-21T16:01:09.440Z,99989.03
2023-04-21T16:03:47.026Z,99982.03
2023-04-21T16:06:13.914Z,99982.47
2023-04-21T16:08:43.518Z,99979.19
2023-04-21T16:11:12.863Z,99977.38
2023-04-21T16:13:39.500Z,99979.31
2023-04-21T16:16:06.470Z,99969.78
2023-04-21T16:18:35.708Z,99977.31
2023-04-21T16:21:04.879Z,99974.66
2023-04-21T16:23:33.921Z,99975.50
2023-04-21T16:26:06.433Z,99974.81
2023-04-21T16:28:35.554Z,99977.50
2023-04-21T16:31:05.303Z,99972.09
2023-04-21T16:33:34.262Z,99973.75
2023-04-21T16:36:03.696Z,99975.22
2023-04-21T16:38:32.635Z,99975.19
2023-04-21T16:40:59.332Z,99976.28
2023-04-21T16:43:26.472Z,99977.59
2023-04-21T16:45:56.180Z,99970.59
2023-04-21T16:48:22.980Z,99971.91
2023-04-21T16:50:53.909Z,99975.78
2023-04-21T16:53:20.959Z,99979.00
2023-04-21T16:55:52.882Z,99973.66
2023-04-21T16:58:20.395Z,99981.59
2023-04-21T17:00:49.340Z,99976.41
2023-04-21T17:03:23.591Z,99974.16
2023-04-21T17:05:52.669Z,99977.03
2023-04-21T17:08:19.291Z,99980.38
2023-04-21T17:10:45.976Z,99975.41
2023-04-21T17:13:12.740Z,99978.22
2023-04-21T17:15:39.309Z,99982.78
2023-04-21T17:18:08.385Z,99982.19
2023-04-21T17:20:35.220Z,99977.31
2023-04-21T17:23:04.652Z,99976.75
2023-04-21T17:25:31.340Z,99976.16
2023-04-21T17:27:57.955Z,99975.59
2023-04-21T17:30:24.586Z,99980.22
2023-04-21T17:33:00.523Z,99979.78
2023-04-21T17:35:46.079Z,99973.78
2023-04-21T17:38:21.361Z,99982.78
2023-04-21T17:40:47.928Z,99984.75
2023-04-21T17:43:14.492Z,99983.19
2023-04-21T17:45:43.357Z,99989.34
2023-04-21T17:48:10.009Z,99985.03
2023-04-21T17:50:39.089Z,99990.38
2023-04-21T17:53:05.768Z,99986.22
2023-04-21T17:55:32.460Z,99999.44
2023-04-21T17:58:01.440Z,99995.13
2023-04-21T18:00:34.508Z,99997.75
2023-04-21T18:03:02.154Z,99996.84
2023-04-21T18:05:29.568Z,100006.53
2023-04-21T18:07:58.644Z,100005.66
2023-04-21T18:10:28.264Z,100007.44
2023-04-21T18:12:56.130Z,100005.69
2023-04-21T18:15:25.768Z,100017.97
2023-04-21T18:17:53.369Z,100010.13
2023-04-21T18:20:23.480Z,100008.38
2023-04-21T18:22:54.190Z,100010.13
2023-04-21T18:25:40.614Z,100011.00
2023-04-21T18:28:11.091Z,100012.78
2023-04-21T18:30:37.805Z,100016.28
2023-04-21T18:33:04.949Z,100016.28
2023-04-21T18:35:34.360Z,100018.03
2023-04-21T18:38:03.898Z,100018.00
2023-04-21T18:40:37.084Z,100018.03
2023-04-21T18:43:06.425Z,100018.03
2023-04-21T18:45:33.669Z,100023.22
2023-04-21T18:48:00.358Z,100029.34
2023-04-21T18:50:29.587Z,100030.19
2023-04-21T18:52:58.790Z,100023.19
2023-04-21T18:55:25.467Z,100021.44
2023-04-21T18:57:52.081Z,100022.25
2023-04-21T19:00:19.531Z,100024.88
2023-04-21T19:02:48.844Z,100029.19
2023-04-21T19:05:16.417Z,100027.44
2023-04-21T19:07:44.189Z,100023.09
2023-04-21T19:10:11.101Z,100022.22
2023-04-21T19:12:37.763Z,100021.34
2023-04-21T19:15:04.689Z,100019.63
2023-04-21T19:17:31.607Z,100021.34
2023-04-21T19:20:00.916Z,100023.13
2023-04-21T19:22:32.834Z,100024.00
2023-04-21T19:25:00.974Z,100029.22
2023-04-21T19:27:34.186Z,100028.31
2023-04-21T19:30:01.677Z,100023.91
2023-04-21T19:32:28.878Z,100024.78
2023-04-21T19:34:56.982Z,100023.91
2023-04-21T19:37:24.383Z,100026.53
2023-04-21T19:39:51.066Z,100023.03
2023-04-21T19:42:17.711Z,100028.25
2023-04-21T19:44:48.750Z,100021.25
2023-04-21T19:47:21.819Z,100027.28
2023-04-21T19:49:48.817Z,100031.56
2023-04-21T19:52:19.097Z,100035.03
2023-04-21T19:54:48.507Z,100033.25
2023-04-21T19:57:15.196Z,100041.06
2023-04-21T19:59:49.222Z,100039.31
2023-04-21T20:02:16.720Z,100034.91
2023-04-21T20:04:43.716Z,100043.63
2023-04-21T20:07:13.772Z,100046.13
2023-04-21T20:09:42.911Z,100047.81
2023-04-21T20:12:12.120Z,100046.03
2023-04-21T20:14:39.006Z,100050.38
2023-04-21T20:17:08.194Z,100051.19
2023-04-21T20:19:40.653Z,100047.69
2023-04-21T20:22:08.237Z,100040.66
2023-04-21T20:24:39.756Z,100046.69
2023-04-21T20:27:08.801Z,100048.44
2023-04-21T20:29:36.555Z,100051.03
2023-04-21T20:32:03.712Z,100050.97
2023-04-21T20:34:30.714Z,100053.44
2023-04-21T20:36:59.772Z,100054.28
2023-04-21T20:39:26.832Z,100056.00
2023-04-21T20:42:11.898Z,100060.31
2023-04-21T20:44:41.268Z,100062.91
2023-04-21T20:47:11.145Z,100059.22
2023-04-21T20:49:42.750Z,100056.56
2023-04-21T20:52:09.646Z,100061.75
2023-04-21T20:54:36.501Z,100053.78
2023-04-21T20:57:03.103Z,100056.34
2023-04-21T20:59:32.138Z,100068.53
2023-04-21T21:02:10.999Z,100064.13
2023-04-21T21:04:42.482Z,100071.06
2023-04-21T21:07:09.062Z,100064.97
2023-04-21T21:09:35.922Z,100067.50
2023-04-21T21:12:02.716Z,100062.03
2023-04-21T21:14:32.128Z,100071.34
2023-04-21T21:17:01.572Z,100067.91
2023-04-21T21:19:30.621Z,100069.66
2023-04-21T21:21:57.569Z,100067.06
2023-04-21T21:24:26.331Z,100071.50
2023-04-21T21:26:53.068Z,100074.00
2023-04-21T21:29:19.696Z,100073.19
2023-04-21T21:31:49.974Z,100076.66
2023-04-21T21:34:19.643Z,100075.75
2023-04-21T21:36:46.288Z,100075.75
2023-04-21T21:39:13.915Z,100073.97
2023-04-21T21:41:43.478Z,100076.59
2023-04-21T21:44:12.568Z,100086.19
2023-04-21T21:46:41.594Z,100080.88
2023-04-21T21:49:10.940Z,100076.38
2023-04-21T21:51:45.699Z,100079.81
2023-04-21T21:54:21.127Z,100078.03
2023-04-21T22:00:51.950Z,100091.84
2023-04-21T22:03:25.340Z,100082.28
2023-04-21T22:05:52.338Z,100088.31
2023-04-21T22:08:21.808Z,100086.47
2023-04-21T22:10:49.467Z,100087.31
2023-04-21T22:13:18.502Z,100089.06
2023-04-21T22:15:47.985Z,100089.13
2023-04-21T22:18:18.710Z,100090.03
2023-04-21T22:20:47.651Z,100094.34
2023-04-21T22:23:19.734Z,100095.25
2023-04-21T22:25:58.297Z,100096.84
2023-04-21T22:28:29.893Z,100098.34
2023-04-21T22:30:59.136Z,100102.66
2023-04-21T22:33:26.082Z,100099.16
2023-04-21T22:35:52.672Z,100092.91
2023-04-21T22:38:19.864Z,100091.06
2023-04-21T22:40:46.722Z,100094.59
2023-04-21T22:43:14.820Z,100094.66
2023-04-21T22:45:42.968Z,100098.06
2023-04-21T22:48:09.652Z,100099.81
2023-04-21T22:50:36.323Z,100099.56
2023-04-21T22:53:02.947Z,100096.59
2023-04-21T22:55:32.139Z,100100.81
2023-04-21T22:57:58.891Z,100106.03
2023-04-21T23:00:30.343Z,100107.19
2023-04-21T23:02:57.155Z,100112.00
2023-04-21T23:05:24.007Z,100116.16
2023-04-21T23:07:53.121Z,100117.19
2023-04-21T23:10:22.388Z,100121.88
2023-04-21T23:12:49.160Z,100122.13
2023-04-21T23:15:15.891Z,100119.69
2023-04-21T23:17:43.416Z,100121.53
2023-04-21T23:20:10.390Z,100111.91
2023-04-21T23:22:37.127Z,100116.31
2023-04-21T23:25:04.156Z,100119.78
2023-04-21T23:27:33.336Z,100110.97
2023-04-21T23:30:00.414Z,100115.75
2023-04-21T23:32:31.534Z,100110.25
2023-04-21T23:34:58.206Z,100101.50
2023-04-21T23:37:24.829Z,100104.16
2023-04-21T23:39:53.854Z,100107.06
2023-04-21T23:42:20.580Z,100108.66
2023-04-21T23:44:47.491Z,100102.06
2023-04-21T23:47:14.560Z,100102.28
2023-04-21T23:49:44.064Z,100103.28
2023-04-21T23:52:10.812Z,100100.00
2023-04-21T23:54:37.384Z,100101.81
2023-04-21T23:57:06.541Z,100092.38
2023-04-21T23:59:35.849Z,100098.50
